sensor_id;sensor_type;location;lat;lon;timestamp;pressure;altitude;pressure_sealevel;temperature;humidity
60337;BME280;46978;50.288;28.624;2022-12-13T00:00:59;98120.20;;;-3.14;100.00
60337;BME280;46978;50.288;28.624;2022-12-13T00:02:01;98120.20;;;-3.14;100.00
60337;BME280;46978;50.288;28.624;2022-12-13T00:03:02;98123.58;;;-3.13;100.00
60337;BME280;46978;50.288;28.624;2022-12-13T00:04:06;98130.38;;;-3.12;100.00
60337;BME280;46978;50.288;28.624;2022-12-13T00:05:08;98129.53;;;-3.13;100.00
60337;BME280;46978;50.288;28.624;2022-12-13T00:06:11;98124.45;;;-3.13;100.00
60337;BME280;46978;50.288;28.624;2022-12-13T00:07:13;98127.02;;;-3.11;100.00
60337;BME280;46978;50.288;28.624;2022-12-13T00:08:14;98121.06;;;-3.12;100.00
60337;BME280;46978;50.288;28.624;2022-12-13T00:09:17;98119.41;;;-3.11;100.00
60337;BME280;46978;50.288;28.624;2022-12-13T00:10:20;98118.53;;;-3.12;100.00
60337;BME280;46978;50.288;28.624;2022-12-13T00:11:22;98120.25;;;-3.11;100.00
60337;BME280;46978;50.288;28.624;2022-12-13T00:12:23;98122.78;;;-3.11;100.00
60337;BME280;46978;50.288;28.624;2022-12-13T00:13:25;98122.81;;;-3.09;100.00
60337;BME280;46978;50.288;28.624;2022-12-13T00:14:27;98124.53;;;-3.08;100.00
60337;BME280;46978;50.288;28.624;2022-12-13T00:15:29;98127.09;;;-3.07;100.00
60337;BME280;46978;50.288;28.624;2022-12-13T00:16:31;98127.11;;;-3.05;100.00
60337;BME280;46978;50.288;28.624;2022-12-13T00:17:32;98131.34;;;-3.04;100.00
60337;BME280;46978;50.288;28.624;2022-12-13T00:18:34;98133.91;;;-3.02;100.00
60337;BME280;46978;50.288;28.624;2022-12-13T00:19:36;98133.09;;;-3.01;100.00
60337;BME280;46978;50.288;28.624;2022-12-13T00:20:38;98137.34;;;-3.00;100.00
60337;BME280;46978;50.288;28.624;2022-12-13T00:21:40;98125.50;;;-3.00;100.00
60337;BME280;46978;50.288;28.624;2022-12-13T00:22:42;98127.23;;;-2.97;100.00
60337;BME280;46978;50.288;28.624;2022-12-13T00:23:45;98140.80;;;-2.95;100.00
60337;BME280;46978;50.288;28.624;2022-12-13T00:24:46;98140.82;;;-2.94;100.00
60337;BME280;46978;50.288;28.624;2022-12-13T00:25:48;98142.52;;;-2.94;100.00
60337;BME280;46978;50.288;28.624;2022-12-13T00:26:53;98141.66;;;-2.93;100.00
60337;BME280;46978;50.288;28.624;2022-12-13T00:27:55;98140.82;;;-2.94;100.00
60337;BME280;46978;50.288;28.624;2022-12-13T00:29:01;98140.80;;;-2.95;100.00
60337;BME280;46978;50.288;28.624;2022-12-13T00:30:04;98145.88;;;-2.95;100.00
60337;BME280;46978;50.288;28.624;2022-12-13T00:31:07;98143.34;;;-2.95;100.00
60337;BME280;46978;50.288;28.624;2022-12-13T00:32:09;98147.59;;;-2.94;100.00
60337;BME280;46978;50.288;28.624;2022-12-13T00:33:10;98142.52;;;-2.94;100.00
60337;BME280;46978;50.288;28.624;2022-12-13T00:34:12;98142.52;;;-2.94;100.00
60337;BME280;46978;50.288;28.624;2022-12-13T00:35:14;98147.62;;;-2.93;100.00
60337;BME280;46978;50.288;28.624;2022-12-13T00:36:16;98138.31;;;-2.92;100.00
60337;BME280;46978;50.288;28.624;2022-12-13T00:37:18;98135.77;;;-2.92;100.00
60337;BME280;46978;50.288;28.624;2022-12-13T00:38:20;98143.41;;;-2.91;100.00
60337;BME280;46978;50.288;28.624;2022-12-13T00:39:22;98131.53;;;-2.92;100.00
60337;BME280;46978;50.288;28.624;2022-12-13T00:40:27;98139.17;;;-2.90;100.00
60337;BME280;46978;50.288;28.624;2022-12-13T00:41:32;98143.43;;;-2.89;100.00
60337;BME280;46978;50.288;28.624;2022-12-13T00:42:34;98140.87;;;-2.91;100.00
60337;BME280;46978;50.288;28.624;2022-12-13T00:43:35;98143.41;;;-2.91;100.00
60337;BME280;46978;50.288;28.624;2022-12-13T00:44:37;98143.41;;;-2.91;100.00
60337;BME280;46978;50.288;28.624;2022-12-13T00:45:39;98144.23;;;-2.92;100.00
60337;BME280;46978;50.288;28.624;2022-12-13T00:46:42;98147.64;;;-2.91;100.00
60337;BME280;46978;50.288;28.624;2022-12-13T00:47:45;98144.23;;;-2.92;100.00
60337;BME280;46978;50.288;28.624;2022-12-13T00:48:55;98139.13;;;-2.93;100.00
60337;BME280;46978;50.288;28.624;2022-12-13T00:49:57;98139.15;;;-2.92;100.00
60337;BME280;46978;50.288;28.624;2022-12-13T00:50:59;98135.80;;;-2.91;100.00
60337;BME280;46978;50.288;28.624;2022-12-13T00:52:03;98139.17;;;-2.90;100.00
60337;BME280;46978;50.288;28.624;2022-12-13T00:53:05;98136.63;;;-2.90;100.00
60337;BME280;46978;50.288;28.624;2022-12-13T00:54:08;98134.09;;;-2.90;100.00
60337;BME280;46978;50.288;28.624;2022-12-13T00:55:10;98134.97;;;-2.90;100.00
60337;BME280;46978;50.288;28.624;2022-12-13T00:56:15;98134.13;;;-2.89;100.00
60337;BME280;46978;50.288;28.624;2022-12-13T00:57:18;98133.28;;;-2.89;100.00
60337;BME280;46978;50.288;28.624;2022-12-13T00:58:19;98134.97;;;-2.90;100.00
60337;BME280;46978;50.288;28.624;2022-12-13T00:59:21;98134.97;;;-2.90;100.00
60337;BME280;46978;50.288;28.624;2022-12-13T01:00:23;98140.89;;;-2.89;100.00
60337;BME280;46978;50.288;28.624;2022-12-13T01:01:32;98137.48;;;-2.91;100.00
60337;BME280;46978;50.288;28.624;2022-12-13T01:02:30;98137.48;;;-2.91;100.00
60337;BME280;46978;50.288;28.624;2022-12-13T01:03:32;98137.48;;;-2.91;100.00
60337;BME280;46978;50.288;28.624;2022-12-13T01:04:34;98139.15;;;-2.92;100.00
60337;BME280;46978;50.288;28.624;2022-12-13T01:05:36;98145.92;;;-2.92;100.00
60337;BME280;46978;50.288;28.624;2022-12-13T01:06:43;98144.20;;;-2.93;100.00
60337;BME280;46978;50.288;28.624;2022-12-13T01:07:45;98145.90;;;-2.94;100.00
60337;BME280;46978;50.288;28.624;2022-12-13T01:08:47;98145.88;;;-2.95;100.00
60337;BME280;46978;50.288;28.624;2022-12-13T01:09:49;98143.31;;;-2.97;100.00
60337;BME280;46978;50.288;28.624;2022-12-13T01:10:51;98145.82;;;-2.98;100.00
60337;BME280;46978;50.288;28.624;2022-12-13T01:11:58;98146.64;;;-2.99;100.00
60337;BME280;46978;50.288;28.624;2022-12-13T01:13:00;98139.88;;;-3.00;100.00
60337;BME280;46978;50.288;28.624;2022-12-13T01:14:02;98140.70;;;-3.01;100.00
60337;BME280;46978;50.288;28.624;2022-12-13T01:15:05;98138.98;;;-3.02;100.00
60337;BME280;46978;50.288;28.624;2022-12-13T01:16:09;98142.37;;;-3.03;100.00
60337;BME280;46978;50.288;28.624;2022-12-13T01:17:11;98135.58;;;-3.04;100.00
60337;BME280;46978;50.288;28.624;2022-12-13T01:18:14;98137.24;;;-3.07;100.00
60337;BME280;46978;50.288;28.624;2022-12-13T01:19:16;98137.24;;;-3.07;100.00
60337;BME280;46978;50.288;28.624;2022-12-13T01:20:17;98136.34;;;-3.09;100.00
60337;BME280;46978;50.288;28.624;2022-12-13T01:21:19;98138.88;;;-3.09;100.00
60337;BME280;46978;50.288;28.624;2022-12-13T01:22:21;98134.63;;;-3.11;100.00
60337;BME280;46978;50.288;28.624;2022-12-13T01:23:23;98131.22;;;-3.12;100.00
60337;BME280;46978;50.288;28.624;2022-12-13T01:24:25;98135.42;;;-3.14;100.00
60337;BME280;46978;50.288;28.624;2022-12-13T01:25:27;98135.38;;;-3.17;100.00
60337;BME280;46978;50.288;28.624;2022-12-13T01:26:29;98134.48;;;-3.20;100.00
60337;BME280;46978;50.288;28.624;2022-12-13T01:27:31;98136.96;;;-3.23;100.00
60337;BME280;46978;50.288;28.624;2022-12-13T01:28:33;98134.37;;;-3.27;100.00
60337;BME280;46978;50.288;28.624;2022-12-13T01:29:34;98125.02;;;-3.29;100.00
60337;BME280;46978;50.288;28.624;2022-12-13T01:30:36;98135.11;;;-3.32;100.00
60337;BME280;46978;50.288;28.624;2022-12-13T01:31:38;98135.03;;;-3.37;99.99
60337;BME280;46978;50.288;28.624;2022-12-13T01:32:40;98136.64;;;-3.42;100.00
60337;BME280;46978;50.288;28.624;2022-12-13T01:33:42;98136.59;;;-3.45;100.00
60337;BME280;46978;50.288;28.624;2022-12-13T01:34:43;98141.61;;;-3.48;100.00
60337;BME280;46978;50.288;28.624;2022-12-13T01:35:45;98138.14;;;-3.52;100.00
60337;BME280;46978;50.288;28.624;2022-12-13T01:36:47;98144.00;;;-3.56;100.00
60337;BME280;46978;50.288;28.624;2022-12-13T01:37:49;98146.48;;;-3.59;100.00
60337;BME280;46978;50.288;28.624;2022-12-13T01:38:51;98143.89;;;-3.62;100.00
60337;BME280;46978;50.288;28.624;2022-12-13T01:39:52;98144.64;;;-3.66;100.00
60337;BME280;46978;50.288;28.624;2022-12-13T01:40:54;98150.50;;;-3.69;100.00
60337;BME280;46978;50.288;28.624;2022-12-13T01:41:56;98150.41;;;-3.73;100.00
60337;BME280;46978;50.288;28.624;2022-12-13T01:42:58;98149.52;;;-3.77;100.00
60337;BME280;46978;50.288;28.624;2022-12-13T01:44:01;98151.98;;;-3.80;100.00
60337;BME280;46978;50.288;28.624;2022-12-13T01:45:22;98143.48;;;-3.84;100.00
60337;BME280;46978;50.288;28.624;2022-12-13T01:46:24;98150.15;;;-3.87;100.00
60337;BME280;46978;50.288;28.624;2022-12-13T01:47:44;98147.55;;;-3.90;100.00
60337;BME280;46978;50.288;28.624;2022-12-13T01:49:02;98149.19;;;-3.94;100.00
60337;BME280;46978;50.288;28.624;2022-12-13T01:50:10;98148.31;;;-3.96;100.00
60337;BME280;46978;50.288;28.624;2022-12-13T01:51:14;98136.39;;;-4.00;100.00
60337;BME280;46978;50.288;28.624;2022-12-13T01:52:18;98143.09;;;-4.04;100.00
60337;BME280;46978;50.288;28.624;2022-12-13T01:53:22;98143.87;;;-4.06;100.00
60337;BME280;46978;50.288;28.624;2022-12-13T01:54:29;98142.99;;;-4.08;100.00
60337;BME280;46978;50.288;28.624;2022-12-13T01:55:33;98142.93;;;-4.11;100.00
60337;BME280;46978;50.288;28.624;2022-12-13T01:56:40;98146.28;;;-4.12;100.00
60337;BME280;46978;50.288;28.624;2022-12-13T01:57:43;98152.19;;;-4.13;100.00
60337;BME280;46978;50.288;28.624;2022-12-13T01:58:47;98148.75;;;-4.16;100.00
60337;BME280;46978;50.288;28.624;2022-12-13T01:59:52;98146.15;;;-4.19;100.00
60337;BME280;46978;50.288;28.624;2022-12-13T02:00:57;98149.53;;;-4.20;100.00
60337;BME280;46978;50.288;28.624;2022-12-13T02:02:00;98141.89;;;-4.21;100.00
60337;BME280;46978;50.288;28.624;2022-12-13T02:03:02;98140.98;;;-4.23;100.00
60337;BME280;46978;50.288;28.624;2022-12-13T02:04:06;98146.02;;;-4.25;100.00
60337;BME280;46978;50.288;28.624;2022-12-13T02:05:12;98151.90;;;-4.27;100.00
60337;BME280;46978;50.288;28.624;2022-12-13T02:06:35;98150.14;;;-4.30;100.00
60337;BME280;46978;50.288;28.624;2022-12-13T02:07:39;98149.30;;;-4.30;100.00
60337;BME280;46978;50.288;28.624;2022-12-13T02:08:43;98153.42;;;-4.34;100.00
60337;BME280;46978;50.288;28.624;2022-12-13T02:09:45;98150.02;;;-4.36;100.00
60337;BME280;46978;50.288;28.624;2022-12-13T02:10:47;98150.80;;;-4.39;100.00
60337;BME280;46978;50.288;28.624;2022-12-13T02:11:50;98151.60;;;-4.41;100.00
60337;BME280;46978;50.288;28.624;2022-12-13T02:12:52;98152.38;;;-4.44;100.00
60337;BME280;46978;50.288;28.624;2022-12-13T02:13:53;98148.97;;;-4.46;100.00
60337;BME280;46978;50.288;28.624;2022-12-13T02:14:57;98151.47;;;-4.47;100.00
60337;BME280;46978;50.288;28.624;2022-12-13T02:20:34;98147.08;;;-4.55;100.00
60337;BME280;46978;50.288;28.624;2022-12-13T02:26:54;98156.16;;;-4.64;100.00
60337;BME280;46978;50.288;28.624;2022-12-13T02:31:28;98154.26;;;-4.73;100.00
60337;BME280;46978;50.288;28.624;2022-12-13T02:32:39;98151.66;;;-4.76;100.00
60337;BME280;46978;50.288;28.624;2022-12-13T02:34:00;98155.84;;;-4.78;100.00
60337;BME280;46978;50.288;28.624;2022-12-13T02:35:22;98149.02;;;-4.81;100.00
60337;BME280;46978;50.288;28.624;2022-12-13T02:38:03;98153.16;;;-4.84;100.00
60337;BME280;46978;50.288;28.624;2022-12-13T02:39:07;98156.43;;;-4.89;100.00
60337;BME280;46978;50.288;28.624;2022-12-13T02:42:43;98150.34;;;-4.97;100.00
60337;BME280;46978;50.288;28.624;2022-12-13T02:46:02;98152.66;;;-5.06;100.00
60337;BME280;46978;50.288;28.624;2022-12-13T02:47:14;98154.23;;;-5.10;100.00
60337;BME280;46978;50.288;28.624;2022-12-13T02:48:20;98154.19;;;-5.11;100.00
60337;BME280;46978;50.288;28.624;2022-12-13T02:49:23;98149.06;;;-5.14;100.00
60337;BME280;46978;50.288;28.624;2022-12-13T02:50:26;98152.39;;;-5.17;100.00
60337;BME280;46978;50.288;28.624;2022-12-13T02:51:29;98147.25;;;-5.20;100.00
60337;BME280;46978;50.288;28.624;2022-12-13T02:52:32;98153.08;;;-5.23;100.00
60337;BME280;46978;50.288;28.624;2022-12-13T02:53:36;98153.00;;;-5.26;100.00
60337;BME280;46978;50.288;28.624;2022-12-13T02:54:39;98155.49;;;-5.27;100.00
60337;BME280;46978;50.288;28.624;2022-12-13T02:55:41;98156.30;;;-5.30;100.00
60337;BME280;46978;50.288;28.624;2022-12-13T02:56:54;98153.73;;;-5.31;100.00
60337;BME280;46978;50.288;28.624;2022-12-13T02:57:56;98151.13;;;-5.34;100.00
60337;BME280;46978;50.288;28.624;2022-12-13T02:59:00;98151.84;;;-5.38;100.00
60337;BME280;46978;50.288;28.624;2022-12-13T03:01:33;98164.37;;;-5.43;100.00
60337;BME280;46978;50.288;28.624;2022-12-13T03:02:38;98165.17;;;-5.44;100.00
60337;BME280;46978;50.288;28.624;2022-12-13T03:03:59;98165.09;;;-5.47;100.00
60337;BME280;46978;50.288;28.624;2022-12-13T03:06:34;98159.11;;;-5.51;100.00
60337;BME280;46978;50.288;28.624;2022-12-13T03:07:41;98169.99;;;-5.53;100.00
60337;BME280;46978;50.288;28.624;2022-12-13T03:09:17;98171.63;;;-5.55;100.00
60337;BME280;46978;50.288;28.624;2022-12-13T03:10:19;98177.48;;;-5.56;100.00
60337;BME280;46978;50.288;28.624;2022-12-13T03:11:21;98174.00;;;-5.62;100.00
60337;BME280;46978;50.288;28.624;2022-12-13T03:12:50;98176.48;;;-5.63;100.00
60337;BME280;46978;50.288;28.624;2022-12-13T03:14:00;98173.06;;;-5.65;100.00
60337;BME280;46978;50.288;28.624;2022-12-13T03:15:16;98178.89;;;-5.68;100.00
60337;BME280;46978;50.288;28.624;2022-12-13T03:16:39;98177.13;;;-5.70;100.00
60337;BME280;46978;50.288;28.624;2022-12-13T03:17:27;98191.39;;;-5.72;100.00
60337;BME280;46978;50.288;28.624;2022-12-13T03:18:32;98180.36;;;-5.76;100.00
60337;BME280;46978;50.288;28.624;2022-12-13T03:19:35;98177.79;;;-5.78;100.00
60337;BME280;46978;50.288;28.624;2022-12-13T03:20:37;98177.75;;;-5.79;100.00
60337;BME280;46978;50.288;28.624;2022-12-13T03:21:42;98179.39;;;-5.80;100.00
60337;BME280;46978;50.288;28.624;2022-12-13T03:22:44;98173.45;;;-5.82;100.00
60337;BME280;46978;50.288;28.624;2022-12-13T03:23:45;98181.88;;;-5.81;100.00
60337;BME280;46978;50.288;28.624;2022-12-13T03:24:47;98181.88;;;-5.81;100.00
60337;BME280;46978;50.288;28.624;2022-12-13T03:25:52;98179.31;;;-5.83;100.00
60337;BME280;46978;50.288;28.624;2022-12-13T03:26:54;98185.24;;;-5.82;100.00
60337;BME280;46978;50.288;28.624;2022-12-13T03:27:56;98187.77;;;-5.82;100.00
60337;BME280;46978;50.288;28.624;2022-12-13T03:28:58;98184.36;;;-5.83;100.00
60337;BME280;46978;50.288;28.624;2022-12-13T03:29:59;98180.98;;;-5.83;100.00
60337;BME280;46978;50.288;28.624;2022-12-13T03:31:01;98189.41;;;-5.83;100.00
60337;BME280;46978;50.288;28.624;2022-12-13T03:32:03;98189.41;;;-5.83;100.00
60337;BME280;46978;50.288;28.624;2022-12-13T03:33:05;98189.41;;;-5.83;100.00
60337;BME280;46978;50.288;28.624;2022-12-13T03:34:07;98189.41;;;-5.83;100.00
60337;BME280;46978;50.288;28.624;2022-12-13T03:35:08;98194.47;;;-5.83;100.00
60337;BME280;46978;50.288;28.624;2022-12-13T03:36:12;98196.15;;;-5.83;100.00
60337;BME280;46978;50.288;28.624;2022-12-13T03:37:14;98200.40;;;-5.82;100.00
60337;BME280;46978;50.288;28.624;2022-12-13T03:38:17;98189.38;;;-5.84;100.00
60337;BME280;46978;50.288;28.624;2022-12-13T03:39:19;98200.31;;;-5.85;100.00
60337;BME280;46978;50.288;28.624;2022-12-13T03:40:22;98197.78;;;-5.85;100.00
60337;BME280;46978;50.288;28.624;2022-12-13T03:41:26;98199.44;;;-5.86;100.00
60337;BME280;46978;50.288;28.624;2022-12-13T03:42:29;98198.59;;;-5.86;100.00
60337;BME280;46978;50.288;28.624;2022-12-13T03:43:31;98201.96;;;-5.86;100.00
60337;BME280;46978;50.288;28.624;2022-12-13T03:44:33;98203.64;;;-5.86;100.00
60337;BME280;46978;50.288;28.624;2022-12-13T03:45:34;98203.64;;;-5.86;100.00
60337;BME280;46978;50.288;28.624;2022-12-13T03:46:36;98201.07;;;-5.88;100.00
60337;BME280;46978;50.288;28.624;2022-12-13T03:47:38;98201.07;;;-5.88;100.00
60337;BME280;46978;50.288;28.624;2022-12-13T03:48:39;98196.02;;;-5.88;100.00
60337;BME280;46978;50.288;28.624;2022-12-13T03:49:41;98194.30;;;-5.89;100.00
60337;BME280;46978;50.288;28.624;2022-12-13T03:50:43;98190.03;;;-5.91;100.00
60337;BME280;46978;50.288;28.624;2022-12-13T03:51:45;98194.25;;;-5.90;100.00
60337;BME280;46978;50.288;28.624;2022-12-13T03:52:46;98189.16;;;-5.92;100.00
60337;BME280;46978;50.288;28.624;2022-12-13T03:53:48;98193.41;;;-5.91;100.00
60337;BME280;46978;50.288;28.624;2022-12-13T03:54:50;98187.51;;;-5.91;100.00
60337;BME280;46978;50.288;28.624;2022-12-13T03:55:51;98189.20;;;-5.90;100.00
60337;BME280;46978;50.288;28.624;2022-12-13T03:56:53;98182.45;;;-5.91;100.00
60337;BME280;46978;50.288;28.624;2022-12-13T03:57:55;98180.82;;;-5.89;100.00
60337;BME280;46978;50.288;28.624;2022-12-13T03:58:57;98184.19;;;-5.89;100.00
60337;BME280;46978;50.288;28.624;2022-12-13T03:59:58;98189.24;;;-5.89;100.00
60337;BME280;46978;50.288;28.624;2022-12-13T04:01:00;98175.72;;;-5.91;100.00
60337;BME280;46978;50.288;28.624;2022-12-13T04:02:02;98181.63;;;-5.90;100.00
60337;BME280;46978;50.288;28.624;2022-12-13T04:03:04;98178.17;;;-5.94;100.00
60337;BME280;46978;50.288;28.624;2022-12-13T04:04:05;98170.53;;;-5.97;100.00
60337;BME280;46978;50.288;28.624;2022-12-13T04:05:07;98182.31;;;-5.98;100.00
60337;BME280;46978;50.288;28.624;2022-12-13T04:06:10;98179.62;;;-6.04;100.00
60337;BME280;46978;50.288;28.624;2022-12-13T04:07:12;98179.62;;;-6.04;100.00
60337;BME280;46978;50.288;28.624;2022-12-13T04:08:14;98183.80;;;-6.04;100.00
60337;BME280;46978;50.288;28.624;2022-12-13T04:09:15;98183.80;;;-6.04;100.00
60337;BME280;46978;50.288;28.624;2022-12-13T04:10:17;98184.58;;;-6.07;100.00
60337;BME280;46978;50.288;28.624;2022-12-13T04:11:19;98184.58;;;-6.07;100.00
60337;BME280;46978;50.288;28.624;2022-12-13T04:12:20;98189.63;;;-6.07;100.00
60337;BME280;46978;50.288;28.624;2022-12-13T04:13:22;98183.66;;;-6.09;100.00
60337;BME280;46978;50.288;28.624;2022-12-13T04:14:24;98191.28;;;-6.07;100.00
60337;BME280;46978;50.288;28.624;2022-12-13T04:15:26;98195.44;;;-6.09;100.00
60337;BME280;46978;50.288;28.624;2022-12-13T04:16:28;98189.59;;;-6.08;100.00
60337;BME280;46978;50.288;28.624;2022-12-13T04:17:29;98187.91;;;-6.08;100.00
60337;BME280;46978;50.288;28.624;2022-12-13T04:18:31;98187.06;;;-6.08;100.00
60337;BME280;46978;50.288;28.624;2022-12-13T04:19:33;98183.66;;;-6.09;100.00
60337;BME280;46978;50.288;28.624;2022-12-13T04:20:34;98179.48;;;-6.08;100.00
60337;BME280;46978;50.288;28.624;2022-12-13T04:21:36;98172.76;;;-6.08;100.00
60337;BME280;46978;50.288;28.624;2022-12-13T04:22:38;98177.01;;;-6.07;100.00
60337;BME280;46978;50.288;28.624;2022-12-13T04:23:39;98174.48;;;-6.07;100.00
60337;BME280;46978;50.288;28.624;2022-12-13T04:24:41;98169.43;;;-6.07;100.00
60337;BME280;46978;50.288;28.624;2022-12-13T04:25:43;98174.48;;;-6.07;100.00
60337;BME280;46978;50.288;28.624;2022-12-13T04:26:45;98171.13;;;-6.06;100.00
60337;BME280;46978;50.288;28.624;2022-12-13T04:27:46;98169.47;;;-6.05;100.00
60337;BME280;46978;50.288;28.624;2022-12-13T04:28:48;98170.27;;;-6.06;100.00
60337;BME280;46978;50.288;28.624;2022-12-13T04:29:50;98173.61;;;-6.07;100.00
60337;BME280;46978;50.288;28.624;2022-12-13T04:30:52;98174.39;;;-6.10;100.00
60337;BME280;46978;50.288;28.624;2022-12-13T04:31:54;98171.83;;;-6.11;100.00
60337;BME280;46978;50.288;28.624;2022-12-13T04:32:56;98171.78;;;-6.13;100.00
60337;BME280;46978;50.288;28.624;2022-12-13T04:33:57;98173.38;;;-6.15;100.00
60337;BME280;46978;50.288;28.624;2022-12-13T04:34:59;98170.81;;;-6.17;100.00
60337;BME280;46978;50.288;28.624;2022-12-13T04:36:01;98171.61;;;-6.19;100.00
60337;BME280;46978;50.288;28.624;2022-12-13T04:37:03;98177.45;;;-6.20;100.00
60337;BME280;46978;50.288;28.624;2022-12-13T04:38:05;98181.61;;;-6.22;100.00
60337;BME280;46978;50.288;28.624;2022-12-13T04:39:09;98178.95;;;-6.27;100.00
60337;BME280;46978;50.288;28.624;2022-12-13T04:40:12;98182.23;;;-6.29;100.00
60337;BME280;46978;50.288;28.624;2022-12-13T04:41:15;98186.39;;;-6.32;100.00
60337;BME280;46978;50.288;28.624;2022-12-13T04:42:17;98188.83;;;-6.35;100.00
60337;BME280;46978;50.288;28.624;2022-12-13T04:43:19;98188.78;;;-6.36;100.00
60337;BME280;46978;50.288;28.624;2022-12-13T04:44:21;98189.48;;;-6.40;100.00
60337;BME280;46978;50.288;28.624;2022-12-13T04:45:22;98180.05;;;-6.46;100.00
60337;BME280;46978;50.288;28.624;2022-12-13T04:46:24;98180.05;;;-6.46;100.00
60337;BME280;46978;50.288;28.624;2022-12-13T04:47:26;98185.94;;;-6.47;100.00
60337;BME280;46978;50.288;28.624;2022-12-13T04:48:28;98182.53;;;-6.47;100.00
60337;BME280;46978;50.288;28.624;2022-12-13T04:49:30;98181.64;;;-6.50;100.00
60337;BME280;46978;50.288;28.624;2022-12-13T04:50:33;98181.59;;;-6.51;100.00
60337;BME280;46978;50.288;28.624;2022-12-13T04:51:34;98173.97;;;-6.53;100.00
60337;BME280;46978;50.288;28.624;2022-12-13T04:52:37;98178.97;;;-6.54;100.00
60337;BME280;46978;50.288;28.624;2022-12-13T04:53:38;98176.41;;;-6.56;100.00
60337;BME280;46978;50.288;28.624;2022-12-13T04:54:40;98176.36;;;-6.57;100.00
60337;BME280;46978;50.288;28.624;2022-12-13T04:55:42;98172.94;;;-6.59;100.00
60337;BME280;46978;50.288;28.624;2022-12-13T04:56:43;98177.14;;;-6.60;100.00
60337;BME280;46978;50.288;28.624;2022-12-13T04:57:45;98176.22;;;-6.62;100.00
60337;BME280;46978;50.288;28.624;2022-12-13T04:58:47;98171.95;;;-6.64;100.00
60337;BME280;46978;50.288;28.624;2022-12-13T04:59:48;98172.75;;;-6.65;100.00
60337;BME280;46978;50.288;28.624;2022-12-13T05:00:51;98177.75;;;-6.67;100.00
60337;BME280;46978;50.288;28.624;2022-12-13T05:01:52;98176.91;;;-6.68;100.00
60337;BME280;46978;50.288;28.624;2022-12-13T05:02:54;98176.86;;;-6.69;100.00
60337;BME280;46978;50.288;28.624;2022-12-13T05:03:56;98177.66;;;-6.70;100.00
60337;BME280;46978;50.288;28.624;2022-12-13T05:04:57;98178.45;;;-6.71;100.00
60337;BME280;46978;50.288;28.624;2022-12-13T05:06:08;98174.24;;;-6.72;100.00
60337;BME280;46978;50.288;28.624;2022-12-13T05:07:10;98177.56;;;-6.73;100.00
60337;BME280;46978;50.288;28.624;2022-12-13T05:08:12;98176.67;;;-6.75;100.00
60337;BME280;46978;50.288;28.624;2022-12-13T05:09:13;98179.14;;;-6.77;100.00
60337;BME280;46978;50.288;28.624;2022-12-13T05:10:15;98179.09;;;-6.78;100.00
60337;BME280;46978;50.288;28.624;2022-12-13T05:11:17;98183.27;;;-6.79;100.00
60337;BME280;46978;50.288;28.624;2022-12-13T05:12:19;98181.52;;;-6.81;100.00
60337;BME280;46978;50.288;28.624;2022-12-13T05:13:20;98184.09;;;-6.80;100.00
60337;BME280;46978;50.288;28.624;2022-12-13T05:14:22;98184.89;;;-6.81;100.00
60337;BME280;46978;50.288;28.624;2022-12-13T05:15:24;98177.27;;;-6.82;100.00
60337;BME280;46978;50.288;28.624;2022-12-13T05:16:29;98179.75;;;-6.84;100.00
60337;BME280;46978;50.288;28.624;2022-12-13T05:17:30;98179.70;;;-6.86;100.00
60337;BME280;46978;50.288;28.624;2022-12-13T05:18:34;98191.47;;;-6.86;100.00
60337;BME280;46978;50.288;28.624;2022-12-13T05:19:36;98186.37;;;-6.88;100.00
60337;BME280;46978;50.288;28.624;2022-12-13T05:20:38;98183.80;;;-6.89;100.00
60337;BME280;46978;50.288;28.624;2022-12-13T05:21:40;98177.88;;;-6.90;100.00
60337;BME280;46978;50.288;28.624;2022-12-13T05:22:42;98182.88;;;-6.91;100.00
60337;BME280;46978;50.288;28.624;2022-12-13T05:23:43;98179.51;;;-6.92;100.00
60337;BME280;46978;50.288;28.624;2022-12-13T05:24:45;98183.66;;;-6.94;100.00
60337;BME280;46978;50.288;28.624;2022-12-13T05:25:46;98191.17;;;-6.95;100.00
60337;BME280;46978;50.288;28.624;2022-12-13T05:26:49;98184.41;;;-6.96;100.00
60337;BME280;46978;50.288;28.624;2022-12-13T05:27:51;98191.97;;;-6.96;100.00
60337;BME280;46978;50.288;28.624;2022-12-13T05:28:56;98191.12;;;-6.97;100.00
60337;BME280;46978;50.288;28.624;2022-12-13T05:29:58;98192.77;;;-6.97;100.00
60337;BME280;46978;50.288;28.624;2022-12-13T05:31:09;98195.28;;;-6.97;100.00
60337;BME280;46978;50.288;28.624;2022-12-13T05:32:11;98196.16;;;-6.97;100.00
60337;BME280;46978;50.288;28.624;2022-12-13T05:33:12;98198.69;;;-6.97;100.00
60337;BME280;46978;50.288;28.624;2022-12-13T05:34:14;98194.44;;;-6.98;100.00
60337;BME280;46978;50.288;28.624;2022-12-13T05:35:15;98200.33;;;-6.97;100.00
60337;BME280;46978;50.288;28.624;2022-12-13T05:36:17;98202.80;;;-6.99;100.00
60337;BME280;46978;50.288;28.624;2022-12-13T05:37:19;98200.28;;;-6.99;100.00
60337;BME280;46978;50.288;28.624;2022-12-13T05:38:21;98201.95;;;-6.99;100.00
60337;BME280;46978;50.288;28.624;2022-12-13T05:39:22;98200.23;;;-7.00;100.00
60337;BME280;46978;50.288;28.624;2022-12-13T05:40:26;98201.06;;;-7.01;100.00
60337;BME280;46978;50.288;28.624;2022-12-13T05:41:31;98200.18;;;-7.02;100.00
60337;BME280;46978;50.288;28.624;2022-12-13T05:42:33;98206.95;;;-7.01;100.00
60337;BME280;46978;50.288;28.624;2022-12-13T05:43:36;98206.09;;;-7.01;100.00
60337;BME280;46978;50.288;28.624;2022-12-13T05:44:38;98204.47;;;-6.99;100.00
60337;BME280;46978;50.288;28.624;2022-12-13T05:45:40;98209.56;;;-6.98;100.00
60337;BME280;46978;50.288;28.624;2022-12-13T05:46:41;98204.58;;;-6.96;100.00
60337;BME280;46978;50.288;28.624;2022-12-13T05:47:43;98207.15;;;-6.95;100.00
60337;BME280;46978;50.288;28.624;2022-12-13T05:48:45;98213.09;;;-6.93;100.00
60337;BME280;46978;50.288;28.624;2022-12-13T05:49:47;98204.67;;;-6.93;100.00